createdAt,value
2022-09-26T00:03:38.150Z,1.73
2022-09-26T00:08:43.087Z,1.90
2022-09-26T00:13:47.186Z,2.60
2022-09-26T00:18:51.768Z,1.97
2022-09-26T00:23:57.855Z,1.90
2022-09-26T00:29:04.663Z,2.07
2022-09-26T00:34:08.652Z,1.87
2022-09-26T00:39:15.693Z,1.73
2022-09-26T00:44:43.066Z,1.70
2022-09-26T00:49:47.447Z,1.40
2022-09-26T00:54:56.058Z,1.93
2022-09-26T01:00:02.990Z,1.30
2022-09-26T01:05:09.381Z,1.30
2022-09-26T01:10:15.476Z,1.27
2022-09-26T01:15:19.374Z,1.20
2022-09-26T01:20:31.555Z,1.10
2022-09-26T01:25:58.868Z,1.70
2022-09-26T01:31:13.340Z,1.53
2022-09-26T01:36:56.748Z,1.00
2022-09-26T01:42:10.490Z,1.20
2022-09-26T01:47:19.148Z,1.50
2022-09-26T01:52:33.702Z,1.30
2022-09-26T01:57:43.948Z,1.10
2022-09-26T02:02:51.149Z,1.20
2022-09-26T02:08:01.384Z,1.20
2022-09-26T02:13:14.865Z,0.80
2022-09-26T02:18:30.904Z,1.10
2022-09-26T02:23:34.799Z,0.90
2022-09-26T02:28:38.831Z,1.30
2022-09-26T02:33:46.192Z,1.23
2022-09-26T02:38:50.148Z,1.20
2022-09-26T02:44:30.044Z,1.00
2022-09-26T02:49:54.983Z,1.50
2022-09-26T02:55:09.682Z,1.30
2022-09-26T03:00:20.414Z,0.90
2022-09-26T03:05:28.573Z,1.30
2022-09-26T03:10:33.728Z,1.33
2022-09-26T03:15:39.866Z,1.23
2022-09-26T03:20:45.414Z,1.23
2022-09-26T03:25:58.711Z,1.50
2022-09-26T03:31:03.540Z,1.00
2022-09-26T03:36:16.908Z,1.93
2022-09-26T03:41:21.019Z,1.20
2022-09-26T03:46:40.259Z,0.80
2022-09-26T03:51:47.055Z,1.20
2022-09-26T03:56:52.115Z,1.27
2022-09-26T04:01:56.119Z,2.13
2022-09-26T04:07:02.861Z,2.90
2022-09-26T04:12:08.133Z,2.70
2022-09-26T04:17:16.798Z,2.30
2022-09-26T04:22:29.922Z,1.50
2022-09-26T04:27:35.693Z,1.50
2022-09-26T04:32:40.100Z,1.70
2022-09-26T04:38:05.037Z,1.10
2022-09-26T04:43:10.083Z,0.80
2022-09-26T04:48:14.736Z,1.13
2022-09-26T04:53:19.918Z,1.10
2022-09-26T04:59:00.351Z,1.10
2022-09-26T05:04:13.678Z,0.90
2022-09-26T05:09:20.927Z,1.63
2022-09-26T05:14:36.728Z,1.23
2022-09-26T05:19:43.176Z,0.97
2022-09-26T05:25:17.700Z,1.00
2022-09-26T05:30:21.478Z,0.93
2022-09-26T05:35:26.286Z,0.80
2022-09-26T05:40:49.627Z,0.90
2022-09-26T05:45:58.802Z,1.00
2022-09-26T05:51:09.964Z,1.00
2022-09-26T05:56:19.746Z,0.93
2022-09-26T06:01:42.521Z,0.93
2022-09-26T06:07:01.323Z,1.43
2022-09-26T06:12:06.735Z,1.10
2022-09-26T06:17:10.778Z,0.83
2022-09-26T06:22:14.704Z,1.07
2022-09-26T06:27:20.457Z,0.60
2022-09-26T06:32:24.531Z,0.90
2022-09-26T06:37:48.559Z,1.10
2022-09-26T06:42:55.929Z,0.90
2022-09-26T06:48:05.538Z,1.10
2022-09-26T06:53:30.955Z,1.20
2022-09-26T06:58:37.427Z,1.50
2022-09-26T07:03:45.932Z,1.40
2022-09-26T07:09:19.320Z,2.00
2022-09-26T07:14:31.227Z,1.93
2022-09-26T07:19:41.149Z,2.50
2022-09-26T07:24:49.633Z,2.47
2022-09-26T07:29:56.523Z,2.20
2022-09-26T07:35:03.436Z,3.27
2022-09-26T07:40:08.064Z,3.10
2022-09-26T07:45:30.068Z,3.13
2022-09-26T07:50:33.956Z,3.10
2022-09-26T07:56:04.839Z,3.40
2022-09-26T08:01:34.578Z,2.50
2022-09-26T08:07:01.099Z,2.57
2022-09-26T08:12:05.456Z,2.30
2022-09-26T08:17:43.479Z,2.63
2022-09-26T08:22:47.729Z,2.50
2022-09-26T08:27:59.622Z,3.90
2022-09-26T08:33:07.012Z,3.00
2022-09-26T08:38:11.038Z,3.33
2022-09-26T08:43:32.090Z,3.30
2022-09-26T08:49:22.838Z,3.30
2022-09-26T08:54:36.679Z,3.10
2022-09-26T08:59:43.581Z,2.63
2022-09-26T09:04:57.640Z,2.77
2022-09-26T09:10:06.222Z,2.63
2022-09-26T09:15:54.967Z,3.63
2022-09-26T09:21:18.722Z,2.83
2022-09-26T09:32:13.142Z,2.67
2022-09-26T09:37:43.461Z,2.90
2022-09-26T09:43:02.755Z,2.63
2022-09-26T09:48:11.944Z,2.50
2022-09-26T09:53:33.082Z,2.50
2022-09-26T09:58:52.692Z,2.60
2022-09-26T10:04:04.124Z,2.70
2022-09-26T10:09:35.632Z,2.77
2022-09-26T10:15:07.734Z,2.27
2022-09-26T10:20:39.197Z,2.10
2022-09-26T10:25:49.786Z,1.80
2022-09-26T10:30:56.648Z,1.50
2022-09-26T10:36:11.816Z,1.10
2022-09-26T10:41:26.291Z,1.53
2022-09-26T10:46:32.771Z,1.77
2022-09-26T10:52:03.095Z,1.30
2022-09-26T10:57:18.394Z,1.30
2022-09-26T11:02:25.765Z,1.23
2022-09-26T11:07:36.026Z,1.03
2022-09-26T11:13:16.190Z,1.00
2022-09-26T11:18:27.018Z,1.07
2022-09-26T11:23:35.889Z,1.30
2022-09-26T11:28:45.252Z,1.13
2022-09-26T11:34:03.351Z,1.20
2022-09-26T11:39:40.988Z,1.17
2022-09-26T11:44:56.747Z,1.03
2022-09-26T11:50:40.851Z,0.90
2022-09-26T11:56:10.272Z,1.03
2022-09-26T12:01:38.832Z,0.80
2022-09-26T12:06:55.220Z,1.03
2022-09-26T12:12:14.450Z,1.00
2022-09-26T12:17:35.143Z,0.60
2022-09-26T12:22:46.373Z,0.93
2022-09-26T12:28:00.603Z,1.10
2022-09-26T12:33:31.191Z,1.10
2022-09-26T12:39:05.383Z,0.80
2022-09-26T12:44:31.370Z,1.20
2022-09-26T12:50:01.233Z,1.10
2022-09-26T12:55:22.105Z,1.00
2022-09-26T13:00:27.840Z,0.77
2022-09-26T13:05:47.923Z,0.60
2022-09-26T13:11:06.340Z,0.67
2022-09-26T13:16:25.214Z,0.77
2022-09-26T13:21:45.165Z,0.77
2022-09-26T13:26:54.932Z,0.70
2022-09-26T13:32:11.249Z,0.77
2022-09-26T13:37:29.423Z,0.80
2022-09-26T13:42:43.592Z,0.60
2022-09-26T13:47:56.116Z,1.00
2022-09-26T13:53:13.283Z,0.70
2022-09-26T13:58:22.079Z,0.80
2022-09-26T14:03:44.777Z,0.67
2022-09-26T14:09:28.764Z,0.70
2022-09-26T14:15:03.562Z,1.10
2022-09-26T14:20:17.404Z,0.70
2022-09-26T14:26:04.243Z,0.80
2022-09-26T14:31:43.963Z,0.80
2022-09-26T14:36:49.942Z,0.50
2022-09-26T14:41:54.642Z,0.70
2022-09-26T14:46:58.468Z,0.87
2022-09-26T14:52:08.926Z,0.70
2022-09-26T14:57:22.557Z,0.70
2022-09-26T15:02:39.515Z,0.63
2022-09-26T15:07:47.300Z,0.60
2022-09-26T15:12:56.780Z,0.50
2022-09-26T15:18:08.238Z,0.70
2022-09-26T15:23:36.065Z,0.70
2022-09-26T15:28:40.215Z,0.63
2022-09-26T15:33:43.972Z,0.50
2022-09-26T15:38:49.318Z,0.77
2022-09-26T15:44:01.900Z,0.90
2022-09-26T15:49:15.265Z,0.60
2022-09-26T15:54:25.467Z,0.93
2022-09-26T15:59:35.426Z,1.30
2022-09-26T16:04:42.857Z,0.70
2022-09-26T16:09:51.328Z,0.90
2022-09-26T16:15:00.807Z,1.27
2022-09-26T16:20:23.239Z,1.00
2022-09-26T16:25:53.094Z,0.87
2022-09-26T16:31:29.773Z,0.77
2022-09-26T16:36:35.510Z,0.97
2022-09-26T16:42:02.475Z,1.00
2022-09-26T16:47:29.241Z,1.20
2022-09-26T16:52:35.684Z,1.30
2022-09-26T16:57:51.351Z,1.40
2022-09-26T17:02:55.173Z,0.97
2022-09-26T17:08:01.742Z,1.53
2022-09-26T17:13:07.561Z,1.10
2022-09-26T17:18:14.202Z,0.90
2022-09-26T17:23:38.738Z,1.20
2022-09-26T17:28:46.262Z,1.30
2022-09-26T17:33:53.603Z,1.20
2022-09-26T17:38:59.793Z,1.00
2022-09-26T17:44:05.046Z,0.80
2022-09-26T17:49:15.534Z,0.87
2022-09-26T17:54:24.300Z,0.80
2022-09-26T17:59:31.737Z,2.30
2022-09-26T18:04:36.982Z,1.10
2022-09-26T18:09:41.123Z,9.20
2022-09-26T18:14:47.040Z,3.93
2022-09-26T18:19:51.291Z,1.00
2022-09-26T18:25:00.688Z,2.50
2022-09-26T18:30:09.464Z,0.60
2022-09-26T18:35:17.124Z,0.60
2022-09-26T18:40:21.905Z,0.60
2022-09-26T18:45:29.599Z,0.90
2022-09-26T18:50:37.010Z,0.80
2022-09-26T18:56:00.998Z,0.80
2022-09-26T19:01:08.866Z,1.27
2022-09-26T19:06:16.376Z,1.90
2022-09-26T19:11:22.989Z,1.53
2022-09-26T19:16:28.726Z,2.03
2022-09-26T19:21:36.389Z,3.13
2022-09-26T19:26:43.483Z,3.43
2022-09-26T19:31:51.372Z,2.00
2022-09-26T19:36:55.318Z,1.00
2022-09-26T19:41:58.955Z,0.80
2022-09-26T19:47:04.768Z,0.80
2022-09-26T19:52:17.324Z,0.70
2022-09-26T19:57:22.368Z,1.03
2022-09-26T20:02:32.791Z,0.90
2022-09-26T20:07:36.298Z,0.90
2022-09-26T20:12:40.119Z,0.67
2022-09-26T20:17:46.958Z,0.70
2022-09-26T20:22:52.371Z,0.80
2022-09-26T20:27:56.869Z,0.80
2022-09-26T20:33:01.726Z,0.70
2022-09-26T20:38:10.027Z,0.80
2022-09-26T20:43:17.997Z,5.00
2022-09-26T20:48:25.770Z,5.50
2022-09-26T20:53:29.364Z,1.83
2022-09-26T20:58:32.962Z,1.00
2022-09-26T21:03:41.320Z,0.80
2022-09-26T21:08:48.256Z,0.67
2022-09-26T21:13:51.908Z,0.60
2022-09-26T21:18:56.998Z,0.70
2022-09-26T21:24:01.119Z,0.53
2022-09-26T21:29:07.619Z,0.83
2022-09-26T21:34:18.450Z,0.50
2022-09-26T21:39:22.774Z,0.50
2022-09-26T21:44:30.428Z,0.67
2022-09-26T21:49:35.481Z,0.97
2022-09-26T21:54:42.924Z,0.50
2022-09-26T21:59:47.587Z,0.63
2022-09-26T22:04:53.236Z,0.43
2022-09-26T22:09:58.278Z,0.70
2022-09-26T22:15:01.893Z,1.10
2022-09-26T22:20:07.290Z,0.50
2022-09-26T22:25:11.333Z,0.40
2022-09-26T22:30:15.468Z,0.40
2022-09-26T22:35:20.548Z,0.53
2022-09-26T22:40:24.095Z,0.37
2022-09-26T22:45:27.872Z,0.30
2022-09-26T22:50:32.755Z,0.50
2022-09-26T22:55:36.418Z,0.40
2022-09-26T23:00:40.018Z,0.33
2022-09-26T23:05:47.437Z,0.30
2022-09-26T23:10:51.619Z,0.40
2022-09-26T23:15:55.408Z,0.40
2022-09-26T23:21:00.344Z,0.27
2022-09-26T23:26:04.674Z,0.30
2022-09-26T23:31:09.181Z,0.50
2022-09-26T23:36:14.491Z,0.30
2022-09-26T23:41:18.121Z,0.37
2022-09-26T23:46:21.918Z,0.50
2022-09-26T23:51:27.037Z,0.30
2022-09-26T23:56:30.700Z,0.40
